Nearby METAR Reports

 

GCLP - Las Palmas/Gando, Spain
Distance from station: NE 26km
Updated: 19/01/2020 18:30
Few Clouds
Few Clouds
 Wind from NNE
Wind: NNE 30 km/h
Temperature: 18°C
Dew Point: 14°C
Humidity: 78%
Barometer: 1022 hPa
Clouds: Few Clouds
Visibility: 10 km
Cloud details: Few Clouds 610 m
2020/01/19 18:30 GCLP 191830Z 02016KT 9999 FEW020 18/14 Q1022 NOSIG
GCTS - Tenerife Sur/Rei, Spain
Distance from station: WNW 102km
Updated: 19/01/2020 18:30
Clear
Clear
 Wind from ENE
Wind: ENE 26 km/h
Temperature: 19°C
Dew Point: 13°C
Humidity: 68%
Barometer: 1023 hPa
Summary: Clear
Visibility: greater than 10 km
2020/01/19 18:30 GCTS 191830Z 07014KT CAVOK 19/13 Q1023 WS ALL RWY NOSIG
 
GCXO - Tenerife/Los Rod, Spain
Distance from station: NW 110km
Updated: 19/01/2020 18:30
Clear
Clear
 Wind from SE
Wind: SE 11 km/h
Temperature: 13°C
Dew Point: 11°C
Humidity: 88%
Barometer: 1024 hPa
Summary: Clear
Visibility: greater than 10 km
2020/01/19 18:30 GCXO 191830Z 14006KT 110V170 CAVOK 13/11 Q1024 NOSIG
GCGM - La Gomera Arpt, Spain
Distance from station: W 164km
Updated: 19/01/2020 18:30
Clear
Clear
 Wind from ESE
Wind: ESE 7 km/h
Temperature: 19°C
Dew Point: 11°C
Humidity: 60%
Barometer: 1023 hPa
Summary: Clear
Visibility: greater than 10 km
2020/01/19 18:30 GCGM 191830Z AUTO 11004KT 060V170 CAVOK 19/11 Q1023 RMK R09/09005KT 050V140 ARP/12004KT 070V190
 
GCFV - Fuerteventura Ar, Spain
Distance from station: ENE 183km
Updated: 19/01/2020 18:30
Partly cloudy
Partly cloudy
 Wind from NE
Wind: NE 22 km/h
Temperature: 19°C
Dew Point: 16°C
Humidity: 83%
Barometer: 1022 hPa
Clouds: Partly cloudy
Visibility: 10 km
Cloud details: Few Clouds 549 m
Partly cloudy 853 m
2020/01/19 18:30 GCFV 191830Z 04012KT 9999 FEW018 SCT028 19/16 Q1022
GCHI - Hierro Airport, Spain
Distance from station: W 226km
Updated: 19/01/2020 18:30
Clear
Clear
 Wind from NE
Wind: NE 24 km/h
Temperature: 19°C
Dew Point: 16°C
Humidity: 83%
Barometer: 1023 hPa
Summary: Clear
Visibility: greater than 10 km
2020/01/19 18:30 GCHI 191830Z AUTO 04013KT CAVOK 19/16 Q1023
 
GCLA - La Palma Airport, Spain
Distance from station: WNW 233km
Updated: 19/01/2020 18:30
Few Clouds
Few Clouds
 Wind from NNE
Wind: NNE 17 km/h
Temperature: 19°C
Dew Point: 14°C
Humidity: 73%
Barometer: 1024 hPa
Clouds: Few Clouds
Visibility: 10 km
Cloud details: Few Clouds 914 m
2020/01/19 18:30 GCLA 191830Z 02009KT 350V060 9999 FEW030 19/14 Q1024
GCRR - Arrecife/Lanzaro, Spain
Distance from station: NE 234km
Updated: 19/01/2020 18:30
Mostly cloudy
Mostly cloudy
 Wind from N
Wind: N 22 km/h
Temperature: 19°C
Dew Point: 16°C
Humidity: 83%
Barometer: 1022 hPa
Clouds: Mostly cloudy
Visibility: 10 km
Cloud details: Few Clouds 488 m
Mostly cloudy 762 m
2020/01/19 18:30 GCRR 191830Z 01012KT 350V050 9999 FEW016 BKN025 19/16 Q1022
 
LPMA - Funchal/Madeira, Portugal
Distance from station: NNW 556km
Updated: 19/01/2020 18:30
Light rain, Showers, Partly cloudy
Light rain, Showers, Partly cloudy
 Wind from N
Wind: N 28 km/h
Temperature: 17°C
Dew Point: 15°C
Humidity: 88%
Barometer: 1026 hPa
Summary: Light rain, Showers
Clouds: Partly cloudy
Visibility: 10 km
Cloud details: Partly cloudy 396 m
Partly cloudy 914 m
2020/01/19 18:30 LPMA 191830Z 01015KT 9999 -SHRA SCT013 SCT030 17/15 Q1026
LPPS - Porto Santo Isla, Portugal
Distance from station: N 594km
Updated: 19/01/2020 18:30
Partly cloudy
Partly cloudy
 Wind from NNE
Wind: NNE 22 km/h
Temperature: 17°C
Dew Point: 13°C
Humidity: 77%
Barometer: 1027 hPa
Clouds: Partly cloudy
Visibility: 10 km
Cloud details: Partly cloudy 427 m
2020/01/19 18:30 LPPS 191830Z 03012KT 010V080 9999 SCT014 17/13 Q1027